sensor_id;sensor_type;location;lat;lon;timestamp;temperature;humidity
49549;DHT22;35450;44.518;7.466;2022-09-20T00:00:13;18.80;64.10
49549;DHT22;35450;44.518;7.466;2022-09-20T00:03:17;18.80;63.60
49549;DHT22;35450;44.518;7.466;2022-09-20T00:06:27;18.90;62.00
49549;DHT22;35450;44.518;7.466;2022-09-20T00:09:31;18.80;58.30
49549;DHT22;35450;44.518;7.466;2022-09-20T00:12:36;18.90;59.40
49549;DHT22;35450;44.518;7.466;2022-09-20T00:15:44;18.90;59.40
49549;DHT22;35450;44.518;7.466;2022-09-20T00:18:50;18.90;59.70
49549;DHT22;35450;44.518;7.466;2022-09-20T00:21:55;19.00;60.10
49549;DHT22;35450;44.518;7.466;2022-09-20T00:24:59;18.80;59.20
49549;DHT22;35450;44.518;7.466;2022-09-20T00:28:03;18.80;57.20
49549;DHT22;35450;44.518;7.466;2022-09-20T00:31:06;18.80;57.60
49549;DHT22;35450;44.518;7.466;2022-09-20T00:34:10;18.80;56.20
49549;DHT22;35450;44.518;7.466;2022-09-20T00:37:34;18.80;54.70
49549;DHT22;35450;44.518;7.466;2022-09-20T00:40:40;18.90;55.80
49549;DHT22;35450;44.518;7.466;2022-09-20T00:43:45;18.90;55.70
49549;DHT22;35450;44.518;7.466;2022-09-20T00:46:49;18.90;55.30
49549;DHT22;35450;44.518;7.466;2022-09-20T00:53:31;18.90;55.60
49549;DHT22;35450;44.518;7.466;2022-09-20T00:56:39;18.90;57.90
49549;DHT22;35450;44.518;7.466;2022-09-20T00:59:47;18.90;56.60
49549;DHT22;35450;44.518;7.466;2022-09-20T01:02:57;18.90;54.90
49549;DHT22;35450;44.518;7.466;2022-09-20T01:06:06;18.80;54.00
49549;DHT22;35450;44.518;7.466;2022-09-20T01:09:10;18.70;54.40
49549;DHT22;35450;44.518;7.466;2022-09-20T01:12:18;18.70;51.70
49549;DHT22;35450;44.518;7.466;2022-09-20T01:15:24;18.70;51.90
49549;DHT22;35450;44.518;7.466;2022-09-20T01:18:31;18.80;52.00
49549;DHT22;35450;44.518;7.466;2022-09-20T01:21:36;18.80;51.80
49549;DHT22;35450;44.518;7.466;2022-09-20T01:24:53;18.70;52.20
49549;DHT22;35450;44.518;7.466;2022-09-20T01:27:59;18.80;52.20
49549;DHT22;35450;44.518;7.466;2022-09-20T01:34:36;18.70;53.20
49549;DHT22;35450;44.518;7.466;2022-09-20T01:44:24;18.70;53.80
49549;DHT22;35450;44.518;7.466;2022-09-20T01:47:42;18.30;56.00
49549;DHT22;35450;44.518;7.466;2022-09-20T02:22:07;17.60;58.10
49549;DHT22;35450;44.518;7.466;2022-09-20T02:38:58;17.50;56.50
49549;DHT22;35450;44.518;7.466;2022-09-20T02:45:26;17.40;58.00
49549;DHT22;35450;44.518;7.466;2022-09-20T02:52:12;17.20;59.10
49549;DHT22;35450;44.518;7.466;2022-09-20T02:59:15;17.00;58.80
49549;DHT22;35450;44.518;7.466;2022-09-20T03:02:25;16.90;61.20
49549;DHT22;35450;44.518;7.466;2022-09-20T03:12:27;17.00;64.60
49549;DHT22;35450;44.518;7.466;2022-09-20T03:15:42;16.90;65.50
49549;DHT22;35450;44.518;7.466;2022-09-20T03:19:03;16.80;65.80
49549;DHT22;35450;44.518;7.466;2022-09-20T03:29:08;16.90;63.00
49549;DHT22;35450;44.518;7.466;2022-09-20T03:42:17;16.50;64.60
49549;DHT22;35450;44.518;7.466;2022-09-20T03:52:16;16.40;63.50
49549;DHT22;35450;44.518;7.466;2022-09-20T03:59:44;16.50;63.30
49549;DHT22;35450;44.518;7.466;2022-09-20T04:02:44;16.50;63.90
49549;DHT22;35450;44.518;7.466;2022-09-20T04:13:38;16.30;65.30
49549;DHT22;35450;44.518;7.466;2022-09-20T04:20:33;16.70;64.70
49549;DHT22;35450;44.518;7.466;2022-09-20T04:23:46;16.60;65.80
49549;DHT22;35450;44.518;7.466;2022-09-20T04:27:02;16.60;65.20
49549;DHT22;35450;44.518;7.466;2022-09-20T04:30:22;16.50;66.40
49549;DHT22;35450;44.518;7.466;2022-09-20T04:33:36;16.70;67.40
49549;DHT22;35450;44.518;7.466;2022-09-20T04:36:56;16.70;67.10
49549;DHT22;35450;44.518;7.466;2022-09-20T04:40:25;16.70;67.40
49549;DHT22;35450;44.518;7.466;2022-09-20T04:44:05;16.70;67.50
49549;DHT22;35450;44.518;7.466;2022-09-20T05:10:36;16.60;67.40
49549;DHT22;35450;44.518;7.466;2022-09-20T05:31:01;16.60;68.10
49549;DHT22;35450;44.518;7.466;2022-09-20T05:48:04;16.90;65.00
49549;DHT22;35450;44.518;7.466;2022-09-20T05:59:14;16.90;68.90
49549;DHT22;35450;44.518;7.466;2022-09-20T06:06:20;16.80;67.30
49549;DHT22;35450;44.518;7.466;2022-09-20T06:19:58;17.00;62.70
49549;DHT22;35450;44.518;7.466;2022-09-20T06:23:07;17.10;64.20
49549;DHT22;35450;44.518;7.466;2022-09-20T06:26:26;17.20;64.10
49549;DHT22;35450;44.518;7.466;2022-09-20T06:29:36;17.30;64.40
49549;DHT22;35450;44.518;7.466;2022-09-20T06:36:26;17.40;63.60
49549;DHT22;35450;44.518;7.466;2022-09-20T06:40:04;17.40;63.90
49549;DHT22;35450;44.518;7.466;2022-09-20T06:43:35;17.40;63.30
49549;DHT22;35450;44.518;7.466;2022-09-20T06:46:43;17.50;64.70
49549;DHT22;35450;44.518;7.466;2022-09-20T06:49:47;17.50;65.70
49549;DHT22;35450;44.518;7.466;2022-09-20T06:52:53;17.50;60.50
49549;DHT22;35450;44.518;7.466;2022-09-20T06:55:59;17.50;60.00
49549;DHT22;35450;44.518;7.466;2022-09-20T06:59:04;17.60;58.20
49549;DHT22;35450;44.518;7.466;2022-09-20T07:02:10;17.60;57.30
49549;DHT22;35450;44.518;7.466;2022-09-20T07:05:16;17.70;56.80
49549;DHT22;35450;44.518;7.466;2022-09-20T07:08:20;17.80;56.80
49549;DHT22;35450;44.518;7.466;2022-09-20T07:11:24;17.90;55.70
49549;DHT22;35450;44.518;7.466;2022-09-20T07:14:28;17.90;55.40
49549;DHT22;35450;44.518;7.466;2022-09-20T07:17:33;18.00;55.40
49549;DHT22;35450;44.518;7.466;2022-09-20T07:20:37;17.90;55.10
49549;DHT22;35450;44.518;7.466;2022-09-20T07:23:42;17.90;54.60
49549;DHT22;35450;44.518;7.466;2022-09-20T07:26:57;17.90;55.40
49549;DHT22;35450;44.518;7.466;2022-09-20T07:30:02;17.90;55.30
49549;DHT22;35450;44.518;7.466;2022-09-20T07:33:07;17.90;55.10
49549;DHT22;35450;44.518;7.466;2022-09-20T07:36:13;17.90;54.40
49549;DHT22;35450;44.518;7.466;2022-09-20T07:39:18;17.90;54.20
49549;DHT22;35450;44.518;7.466;2022-09-20T07:42:22;17.90;53.60
49549;DHT22;35450;44.518;7.466;2022-09-20T07:45:26;18.00;53.90
49549;DHT22;35450;44.518;7.466;2022-09-20T07:48:33;18.10;53.60
49549;DHT22;35450;44.518;7.466;2022-09-20T07:51:37;18.10;51.20
49549;DHT22;35450;44.518;7.466;2022-09-20T07:54:42;18.10;52.60
49549;DHT22;35450;44.518;7.466;2022-09-20T07:57:46;18.10;53.50
49549;DHT22;35450;44.518;7.466;2022-09-20T08:01:04;18.10;53.90
49549;DHT22;35450;44.518;7.466;2022-09-20T08:04:09;18.10;56.50
49549;DHT22;35450;44.518;7.466;2022-09-20T08:07:14;18.00;55.80
49549;DHT22;35450;44.518;7.466;2022-09-20T08:10:18;17.90;55.30
49549;DHT22;35450;44.518;7.466;2022-09-20T08:13:22;17.90;55.50
49549;DHT22;35450;44.518;7.466;2022-09-20T08:16:27;17.90;55.40
49549;DHT22;35450;44.518;7.466;2022-09-20T08:19:31;17.90;55.30
49549;DHT22;35450;44.518;7.466;2022-09-20T08:22:35;17.90;56.00
49549;DHT22;35450;44.518;7.466;2022-09-20T08:25:42;17.90;56.90
49549;DHT22;35450;44.518;7.466;2022-09-20T08:28:47;17.90;56.80
49549;DHT22;35450;44.518;7.466;2022-09-20T08:31:55;17.90;56.60
49549;DHT22;35450;44.518;7.466;2022-09-20T08:35:01;18.00;57.00
49549;DHT22;35450;44.518;7.466;2022-09-20T08:38:04;18.00;57.00
49549;DHT22;35450;44.518;7.466;2022-09-20T08:41:20;18.10;57.00
49549;DHT22;35450;44.518;7.466;2022-09-20T08:44:34;18.20;56.70
49549;DHT22;35450;44.518;7.466;2022-09-20T08:47:55;18.10;56.40
49549;DHT22;35450;44.518;7.466;2022-09-20T08:51:02;18.10;55.40
49549;DHT22;35450;44.518;7.466;2022-09-20T08:54:08;18.20;56.50
49549;DHT22;35450;44.518;7.466;2022-09-20T08:57:17;18.20;56.30
49549;DHT22;35450;44.518;7.466;2022-09-20T09:00:30;18.20;55.60
49549;DHT22;35450;44.518;7.466;2022-09-20T09:03:35;18.20;54.20
49549;DHT22;35450;44.518;7.466;2022-09-20T09:06:40;18.30;55.50
49549;DHT22;35450;44.518;7.466;2022-09-20T09:09:45;18.30;56.10
49549;DHT22;35450;44.518;7.466;2022-09-20T09:12:50;18.20;55.80
49549;DHT22;35450;44.518;7.466;2022-09-20T09:16:11;18.30;55.80
49549;DHT22;35450;44.518;7.466;2022-09-20T09:19:31;18.40;55.50
49549;DHT22;35450;44.518;7.466;2022-09-20T09:22:43;18.40;55.90
49549;DHT22;35450;44.518;7.466;2022-09-20T09:25:48;18.40;54.00
49549;DHT22;35450;44.518;7.466;2022-09-20T09:29:19;18.40;54.50
49549;DHT22;35450;44.518;7.466;2022-09-20T09:32:26;18.50;54.10
49549;DHT22;35450;44.518;7.466;2022-09-20T09:35:34;18.50;54.80
49549;DHT22;35450;44.518;7.466;2022-09-20T09:38:40;18.50;55.80
49549;DHT22;35450;44.518;7.466;2022-09-20T09:41:47;18.60;54.30
49549;DHT22;35450;44.518;7.466;2022-09-20T09:44:51;18.70;54.20
49549;DHT22;35450;44.518;7.466;2022-09-20T09:47:59;18.70;55.00
49549;DHT22;35450;44.518;7.466;2022-09-20T09:51:12;18.70;54.40
49549;DHT22;35450;44.518;7.466;2022-09-20T09:54:34;18.70;54.90
49549;DHT22;35450;44.518;7.466;2022-09-20T09:58:02;18.70;54.80
49549;DHT22;35450;44.518;7.466;2022-09-20T10:01:28;18.80;55.90
49549;DHT22;35450;44.518;7.466;2022-09-20T10:21:42;18.90;53.10
49549;DHT22;35450;44.518;7.466;2022-09-20T10:34:45;19.10;52.00
49549;DHT22;35450;44.518;7.466;2022-09-20T10:38:14;19.20;52.80
49549;DHT22;35450;44.518;7.466;2022-09-20T10:45:22;19.20;51.20
49549;DHT22;35450;44.518;7.466;2022-09-20T10:48:34;19.20;52.80
49549;DHT22;35450;44.518;7.466;2022-09-20T10:55:23;19.30;52.20
49549;DHT22;35450;44.518;7.466;2022-09-20T11:05:44;19.20;53.30
49549;DHT22;35450;44.518;7.466;2022-09-20T11:08:54;19.30;53.40
49549;DHT22;35450;44.518;7.466;2022-09-20T11:12:16;19.40;51.00
49549;DHT22;35450;44.518;7.466;2022-09-20T11:15:28;19.50;51.90
49549;DHT22;35450;44.518;7.466;2022-09-20T11:28:18;19.60;51.60
49549;DHT22;35450;44.518;7.466;2022-09-20T11:31:38;19.70;50.30
49549;DHT22;35450;44.518;7.466;2022-09-20T11:34:52;19.50;50.10
49549;DHT22;35450;44.518;7.466;2022-09-20T11:38:17;19.60;50.80
49549;DHT22;35450;44.518;7.466;2022-09-20T11:44:28;19.80;50.60
49549;DHT22;35450;44.518;7.466;2022-09-20T11:47:50;19.80;50.70
49549;DHT22;35450;44.518;7.466;2022-09-20T11:52:04;19.70;51.20
49549;DHT22;35450;44.518;7.466;2022-09-20T11:58:07;19.80;51.60
49549;DHT22;35450;44.518;7.466;2022-09-20T12:01:13;19.90;50.60
49549;DHT22;35450;44.518;7.466;2022-09-20T12:04:21;19.80;50.10
49549;DHT22;35450;44.518;7.466;2022-09-20T12:07:38;19.90;50.40
49549;DHT22;35450;44.518;7.466;2022-09-20T12:10:57;19.90;50.20
49549;DHT22;35450;44.518;7.466;2022-09-20T12:14:04;19.90;50.20
49549;DHT22;35450;44.518;7.466;2022-09-20T12:24:01;19.80;50.40
49549;DHT22;35450;44.518;7.466;2022-09-20T12:30:26;19.90;51.10
49549;DHT22;35450;44.518;7.466;2022-09-20T12:40:02;20.10;51.60
49549;DHT22;35450;44.518;7.466;2022-09-20T12:43:17;20.10;51.90
49549;DHT22;35450;44.518;7.466;2022-09-20T12:46:28;20.30;51.30
49549;DHT22;35450;44.518;7.466;2022-09-20T12:53:11;20.40;50.80
49549;DHT22;35450;44.518;7.466;2022-09-20T12:56:20;20.40;51.10
49549;DHT22;35450;44.518;7.466;2022-09-20T12:59:30;20.40;50.20
49549;DHT22;35450;44.518;7.466;2022-09-20T13:09:09;20.30;50.20
49549;DHT22;35450;44.518;7.466;2022-09-20T13:12:16;20.30;50.90
49549;DHT22;35450;44.518;7.466;2022-09-20T13:15:20;20.30;50.80
49549;DHT22;35450;44.518;7.466;2022-09-20T13:18:26;20.40;50.80
49549;DHT22;35450;44.518;7.466;2022-09-20T13:21:38;20.40;50.80
49549;DHT22;35450;44.518;7.466;2022-09-20T13:24:45;20.60;50.60
49549;DHT22;35450;44.518;7.466;2022-09-20T13:28:05;20.60;50.50
49549;DHT22;35450;44.518;7.466;2022-09-20T13:34:24;20.70;50.50
49549;DHT22;35450;44.518;7.466;2022-09-20T13:37:28;20.70;50.80
49549;DHT22;35450;44.518;7.466;2022-09-20T13:40:33;20.70;50.70
49549;DHT22;35450;44.518;7.466;2022-09-20T13:43:43;20.80;50.80
49549;DHT22;35450;44.518;7.466;2022-09-20T13:46:49;20.80;50.50
49549;DHT22;35450;44.518;7.466;2022-09-20T13:50:19;20.80;50.50
49549;DHT22;35450;44.518;7.466;2022-09-20T13:53:25;20.70;51.10
49549;DHT22;35450;44.518;7.466;2022-09-20T13:56:30;20.80;51.20
49549;DHT22;35450;44.518;7.466;2022-09-20T13:59:41;20.90;50.90
49549;DHT22;35450;44.518;7.466;2022-09-20T14:02:48;20.80;50.90
49549;DHT22;35450;44.518;7.466;2022-09-20T14:06:11;20.80;50.50
49549;DHT22;35450;44.518;7.466;2022-09-20T14:09:35;20.80;50.70
49549;DHT22;35450;44.518;7.466;2022-09-20T14:12:42;20.80;51.00
49549;DHT22;35450;44.518;7.466;2022-09-20T14:15:47;20.90;50.50
49549;DHT22;35450;44.518;7.466;2022-09-20T14:18:51;21.10;50.50
49549;DHT22;35450;44.518;7.466;2022-09-20T14:21:57;21.10;50.10
49549;DHT22;35450;44.518;7.466;2022-09-20T14:28:18;21.10;50.30
49549;DHT22;35450;44.518;7.466;2022-09-20T14:31:29;21.20;51.80
49549;DHT22;35450;44.518;7.466;2022-09-20T14:34:39;21.20;51.00
49549;DHT22;35450;44.518;7.466;2022-09-20T14:37:47;21.40;50.50
49549;DHT22;35450;44.518;7.466;2022-09-20T14:40:52;21.40;50.60
49549;DHT22;35450;44.518;7.466;2022-09-20T14:43:58;21.60;50.20
49549;DHT22;35450;44.518;7.466;2022-09-20T14:47:15;21.70;49.80
49549;DHT22;35450;44.518;7.466;2022-09-20T14:51:06;21.60;50.10
49549;DHT22;35450;44.518;7.466;2022-09-20T14:57:14;21.70;50.20
49549;DHT22;35450;44.518;7.466;2022-09-20T15:00:18;21.80;49.80
49549;DHT22;35450;44.518;7.466;2022-09-20T15:03:38;21.90;49.60
49549;DHT22;35450;44.518;7.466;2022-09-20T15:06:42;21.90;49.80
49549;DHT22;35450;44.518;7.466;2022-09-20T15:09:47;21.80;50.10
49549;DHT22;35450;44.518;7.466;2022-09-20T15:12:51;21.80;50.90
49549;DHT22;35450;44.518;7.466;2022-09-20T15:15:55;21.80;50.30
49549;DHT22;35450;44.518;7.466;2022-09-20T15:18:59;21.90;50.30
49549;DHT22;35450;44.518;7.466;2022-09-20T15:22:03;22.10;49.70
49549;DHT22;35450;44.518;7.466;2022-09-20T15:25:12;22.30;49.30
49549;DHT22;35450;44.518;7.466;2022-09-20T15:28:17;22.40;49.40
49549;DHT22;35450;44.518;7.466;2022-09-20T15:31:21;22.40;49.60
49549;DHT22;35450;44.518;7.466;2022-09-20T15:34:25;22.50;49.20
49549;DHT22;35450;44.518;7.466;2022-09-20T15:37:29;22.70;48.60
49549;DHT22;35450;44.518;7.466;2022-09-20T15:40:34;23.10;47.20
49549;DHT22;35450;44.518;7.466;2022-09-20T15:43:39;23.40;47.70
49549;DHT22;35450;44.518;7.466;2022-09-20T15:46:46;22.80;48.60
49549;DHT22;35450;44.518;7.466;2022-09-20T15:49:51;22.80;48.20
49549;DHT22;35450;44.518;7.466;2022-09-20T15:52:55;22.70;48.10
49549;DHT22;35450;44.518;7.466;2022-09-20T15:56:02;22.60;48.10
49549;DHT22;35450;44.518;7.466;2022-09-20T15:59:09;22.60;48.50
49549;DHT22;35450;44.518;7.466;2022-09-20T16:02:13;22.60;48.80
49549;DHT22;35450;44.518;7.466;2022-09-20T16:05:17;22.60;48.70
49549;DHT22;35450;44.518;7.466;2022-09-20T16:08:21;22.60;48.80
49549;DHT22;35450;44.518;7.466;2022-09-20T16:11:24;22.60;49.00
49549;DHT22;35450;44.518;7.466;2022-09-20T16:14:30;22.50;48.70
49549;DHT22;35450;44.518;7.466;2022-09-20T16:17:34;22.40;48.80
49549;DHT22;35450;44.518;7.466;2022-09-20T16:21:05;22.40;49.70
49549;DHT22;35450;44.518;7.466;2022-09-20T16:24:09;22.10;51.30
49549;DHT22;35450;44.518;7.466;2022-09-20T16:27:15;22.00;50.90
49549;DHT22;35450;44.518;7.466;2022-09-20T16:30:21;21.90;51.90
49549;DHT22;35450;44.518;7.466;2022-09-20T16:33:25;21.80;51.70
49549;DHT22;35450;44.518;7.466;2022-09-20T16:36:32;21.60;52.60
49549;DHT22;35450;44.518;7.466;2022-09-20T16:39:37;21.50;52.40
49549;DHT22;35450;44.518;7.466;2022-09-20T16:42:41;21.60;52.40
49549;DHT22;35450;44.518;7.466;2022-09-20T16:46:00;21.60;52.70
49549;DHT22;35450;44.518;7.466;2022-09-20T16:49:05;21.50;52.40
49549;DHT22;35450;44.518;7.466;2022-09-20T16:52:10;21.30;52.60
49549;DHT22;35450;44.518;7.466;2022-09-20T16:55:14;21.30;53.00
49549;DHT22;35450;44.518;7.466;2022-09-20T16:58:18;21.20;53.90
49549;DHT22;35450;44.518;7.466;2022-09-20T17:01:22;21.20;54.10
49549;DHT22;35450;44.518;7.466;2022-09-20T17:04:27;21.00;54.50
49549;DHT22;35450;44.518;7.466;2022-09-20T17:07:31;21.00;54.40
49549;DHT22;35450;44.518;7.466;2022-09-20T17:10:36;21.00;54.80
49549;DHT22;35450;44.518;7.466;2022-09-20T17:13:42;21.00;54.80
49549;DHT22;35450;44.518;7.466;2022-09-20T17:16:47;20.90;55.00
49549;DHT22;35450;44.518;7.466;2022-09-20T17:19:52;20.80;55.20
49549;DHT22;35450;44.518;7.466;2022-09-20T17:22:56;20.60;55.40
49549;DHT22;35450;44.518;7.466;2022-09-20T17:26:09;20.60;55.30
49549;DHT22;35450;44.518;7.466;2022-09-20T17:29:15;20.40;55.30
49549;DHT22;35450;44.518;7.466;2022-09-20T17:32:20;20.20;55.60
49549;DHT22;35450;44.518;7.466;2022-09-20T17:35:24;20.10;55.90
49549;DHT22;35450;44.518;7.466;2022-09-20T17:38:31;20.00;55.90
49549;DHT22;35450;44.518;7.466;2022-09-20T17:41:40;20.10;55.90
49549;DHT22;35450;44.518;7.466;2022-09-20T17:44:45;20.00;55.70
49549;DHT22;35450;44.518;7.466;2022-09-20T17:47:49;19.90;55.90
49549;DHT22;35450;44.518;7.466;2022-09-20T17:50:55;19.60;56.30
49549;DHT22;35450;44.518;7.466;2022-09-20T17:53:59;19.60;56.50
49549;DHT22;35450;44.518;7.466;2022-09-20T17:57:04;19.60;57.00
49549;DHT22;35450;44.518;7.466;2022-09-20T18:00:09;19.60;56.40
49549;DHT22;35450;44.518;7.466;2022-09-20T18:03:13;19.50;56.40
49549;DHT22;35450;44.518;7.466;2022-09-20T18:06:21;19.40;56.70
49549;DHT22;35450;44.518;7.466;2022-09-20T18:09:25;19.20;56.90
49549;DHT22;35450;44.518;7.466;2022-09-20T18:12:30;19.10;57.10
49549;DHT22;35450;44.518;7.466;2022-09-20T18:15:34;19.00;57.50
49549;DHT22;35450;44.518;7.466;2022-09-20T18:18:39;18.90;57.70
49549;DHT22;35450;44.518;7.466;2022-09-20T18:21:44;18.80;57.80
49549;DHT22;35450;44.518;7.466;2022-09-20T18:24:47;18.70;57.90
49549;DHT22;35450;44.518;7.466;2022-09-20T18:27:51;18.70;58.10
49549;DHT22;35450;44.518;7.466;2022-09-20T18:31:03;18.70;58.40
49549;DHT22;35450;44.518;7.466;2022-09-20T18:34:18;18.80;58.40
49549;DHT22;35450;44.518;7.466;2022-09-20T18:37:22;18.80;58.00
49549;DHT22;35450;44.518;7.466;2022-09-20T18:40:26;18.70;57.90
49549;DHT22;35450;44.518;7.466;2022-09-20T18:43:32;18.70;57.90
49549;DHT22;35450;44.518;7.466;2022-09-20T18:46:38;18.70;58.20
49549;DHT22;35450;44.518;7.466;2022-09-20T18:49:43;18.70;58.30
49549;DHT22;35450;44.518;7.466;2022-09-20T18:52:46;18.70;58.40
49549;DHT22;35450;44.518;7.466;2022-09-20T18:55:55;18.70;58.40
49549;DHT22;35450;44.518;7.466;2022-09-20T18:59:05;18.60;58.90
49549;DHT22;35450;44.518;7.466;2022-09-20T19:02:29;18.60;58.90
49549;DHT22;35450;44.518;7.466;2022-09-20T19:05:42;18.60;58.60
49549;DHT22;35450;44.518;7.466;2022-09-20T19:09:04;18.70;58.70
49549;DHT22;35450;44.518;7.466;2022-09-20T19:16:45;18.50;58.90
49549;DHT22;35450;44.518;7.466;2022-09-20T19:19:48;18.50;58.90
49549;DHT22;35450;44.518;7.466;2022-09-20T19:26:35;18.50;59.90
49549;DHT22;35450;44.518;7.466;2022-09-20T19:29:43;18.60;59.80
49549;DHT22;35450;44.518;7.466;2022-09-20T19:32:47;18.50;60.50
49549;DHT22;35450;44.518;7.466;2022-09-20T19:35:51;18.50;60.50
49549;DHT22;35450;44.518;7.466;2022-09-20T19:39:07;18.40;61.40
49549;DHT22;35450;44.518;7.466;2022-09-20T19:48:39;18.30;61.20
49549;DHT22;35450;44.518;7.466;2022-09-20T19:51:49;18.20;60.80
49549;DHT22;35450;44.518;7.466;2022-09-20T19:54:53;18.30;60.90
49549;DHT22;35450;44.518;7.466;2022-09-20T19:57:58;18.30;61.00
49549;DHT22;35450;44.518;7.466;2022-09-20T20:01:02;18.20;61.50
49549;DHT22;35450;44.518;7.466;2022-09-20T20:04:07;18.30;60.80
49549;DHT22;35450;44.518;7.466;2022-09-20T20:07:33;18.30;60.60
49549;DHT22;35450;44.518;7.466;2022-09-20T20:20:46;18.10;61.70
49549;DHT22;35450;44.518;7.466;2022-09-20T20:23:56;17.90;62.50
49549;DHT22;35450;44.518;7.466;2022-09-20T20:27:07;17.90;62.70
49549;DHT22;35450;44.518;7.466;2022-09-20T20:30:11;18.00;62.30
49549;DHT22;35450;44.518;7.466;2022-09-20T20:33:15;18.00;62.20
49549;DHT22;35450;44.518;7.466;2022-09-20T20:36:19;18.10;61.80
49549;DHT22;35450;44.518;7.466;2022-09-20T20:39:24;18.20;61.40
49549;DHT22;35450;44.518;7.466;2022-09-20T20:42:28;18.20;61.70
49549;DHT22;35450;44.518;7.466;2022-09-20T20:45:31;18.10;62.10
49549;DHT22;35450;44.518;7.466;2022-09-20T20:48:36;18.20;60.80
49549;DHT22;35450;44.518;7.466;2022-09-20T20:51:40;18.20;61.30
49549;DHT22;35450;44.518;7.466;2022-09-20T20:54:44;18.20;60.80
49549;DHT22;35450;44.518;7.466;2022-09-20T20:57:54;18.20;61.50
49549;DHT22;35450;44.518;7.466;2022-09-20T21:01:10;18.20;61.10
49549;DHT22;35450;44.518;7.466;2022-09-20T21:04:14;18.20;62.40
49549;DHT22;35450;44.518;7.466;2022-09-20T21:07:19;18.20;61.60
49549;DHT22;35450;44.518;7.466;2022-09-20T21:10:23;18.20;60.90
49549;DHT22;35450;44.518;7.466;2022-09-20T21:13:27;18.20;61.50
49549;DHT22;35450;44.518;7.466;2022-09-20T21:16:37;18.30;60.60
49549;DHT22;35450;44.518;7.466;2022-09-20T21:19:42;18.40;61.10
49549;DHT22;35450;44.518;7.466;2022-09-20T21:22:46;18.20;60.70
49549;DHT22;35450;44.518;7.466;2022-09-20T21:26:01;18.30;62.10
49549;DHT22;35450;44.518;7.466;2022-09-20T21:29:12;18.20;62.60
49549;DHT22;35450;44.518;7.466;2022-09-20T21:32:16;18.20;61.00
49549;DHT22;35450;44.518;7.466;2022-09-20T21:35:20;18.10;62.00
49549;DHT22;35450;44.518;7.466;2022-09-20T21:38:27;18.10;62.90
49549;DHT22;35450;44.518;7.466;2022-09-20T21:41:33;18.10;62.10
49549;DHT22;35450;44.518;7.466;2022-09-20T21:44:38;17.80;63.30
49549;DHT22;35450;44.518;7.466;2022-09-20T21:47:47;17.90;61.80
49549;DHT22;35450;44.518;7.466;2022-09-20T21:50:58;17.80;62.40
49549;DHT22;35450;44.518;7.466;2022-09-20T21:54:02;17.80;63.10
49549;DHT22;35450;44.518;7.466;2022-09-20T21:57:06;17.70;64.20
49549;DHT22;35450;44.518;7.466;2022-09-20T22:00:12;17.60;64.60
49549;DHT22;35450;44.518;7.466;2022-09-20T22:03:16;17.60;64.70
49549;DHT22;35450;44.518;7.466;2022-09-20T22:06:22;17.70;65.20
49549;DHT22;35450;44.518;7.466;2022-09-20T22:09:26;17.60;64.90
49549;DHT22;35450;44.518;7.466;2022-09-20T22:12:30;17.60;64.70
49549;DHT22;35450;44.518;7.466;2022-09-20T22:15:34;17.60;64.90
49549;DHT22;35450;44.518;7.466;2022-09-20T22:18:40;17.60;65.50
49549;DHT22;35450;44.518;7.466;2022-09-20T22:21:47;17.50;65.20
49549;DHT22;35450;44.518;7.466;2022-09-20T22:24:51;17.60;65.30
49549;DHT22;35450;44.518;7.466;2022-09-20T22:27:55;17.50;65.90
49549;DHT22;35450;44.518;7.466;2022-09-20T22:31:04;17.50;65.70
49549;DHT22;35450;44.518;7.466;2022-09-20T22:34:16;17.40;65.70
49549;DHT22;35450;44.518;7.466;2022-09-20T22:37:21;17.30;64.60
49549;DHT22;35450;44.518;7.466;2022-09-20T22:40:25;17.50;63.50
49549;DHT22;35450;44.518;7.466;2022-09-20T22:43:31;17.40;63.20
49549;DHT22;35450;44.518;7.466;2022-09-20T22:46:36;17.50;63.20
49549;DHT22;35450;44.518;7.466;2022-09-20T22:49:41;17.60;64.40
49549;DHT22;35450;44.518;7.466;2022-09-20T22:52:45;17.40;64.60
49549;DHT22;35450;44.518;7.466;2022-09-20T22:55:49;17.40;64.60
49549;DHT22;35450;44.518;7.466;2022-09-20T22:58:55;17.50;63.80
49549;DHT22;35450;44.518;7.466;2022-09-20T23:01:59;17.50;65.00
49549;DHT22;35450;44.518;7.466;2022-09-20T23:05:03;17.40;65.50
49549;DHT22;35450;44.518;7.466;2022-09-20T23:08:09;17.40;65.30
49549;DHT22;35450;44.518;7.466;2022-09-20T23:11:13;17.30;65.20
49549;DHT22;35450;44.518;7.466;2022-09-20T23:14:19;17.30;65.10
49549;DHT22;35450;44.518;7.466;2022-09-20T23:17:23;17.30;66.20
49549;DHT22;35450;44.518;7.466;2022-09-20T23:20:27;17.20;65.70
49549;DHT22;35450;44.518;7.466;2022-09-20T23:23:32;17.00;66.70
49549;DHT22;35450;44.518;7.466;2022-09-20T23:26:37;17.00;66.90
49549;DHT22;35450;44.518;7.466;2022-09-20T23:29:41;17.10;66.80
49549;DHT22;35450;44.518;7.466;2022-09-20T23:32:45;17.30;65.40
49549;DHT22;35450;44.518;7.466;2022-09-20T23:35:49;17.00;67.20
49549;DHT22;35450;44.518;7.466;2022-09-20T23:38:54;17.10;66.80
49549;DHT22;35450;44.518;7.466;2022-09-20T23:41:59;17.00;66.90
49549;DHT22;35450;44.518;7.466;2022-09-20T23:45:03;16.90;67.30
49549;DHT22;35450;44.518;7.466;2022-09-20T23:48:07;16.80;67.50
49549;DHT22;35450;44.518;7.466;2022-09-20T23:51:16;16.70;67.80
49549;DHT22;35450;44.518;7.466;2022-09-20T23:54:21;16.60;68.50
49549;DHT22;35450;44.518;7.466;2022-09-20T23:57:25;16.40;68.90
